createdAt,value
2018-03-20T00:00:23.342Z,22.45
2018-03-20T00:02:51.090Z,26.02
2018-03-20T00:05:18.942Z,26.25
2018-03-20T00:07:46.624Z,22.15
2018-03-20T00:10:15.104Z,23.27
2018-03-20T00:12:42.909Z,25.85
2018-03-20T00:15:10.759Z,25.15
2018-03-20T00:17:38.609Z,25.88
2018-03-20T00:20:06.462Z,26.75
2018-03-20T00:22:34.211Z,23.58
2018-03-20T00:25:01.961Z,25.88
2018-03-20T00:27:29.812Z,23.25
2018-03-20T00:29:57.673Z,22.42
2018-03-20T00:32:25.400Z,25.58
2018-03-20T00:34:53.168Z,24.15
2018-03-20T00:37:20.888Z,21.35
2018-03-20T00:39:48.568Z,21.80
2018-03-20T00:42:16.311Z,22.52
2018-03-20T00:44:43.995Z,25.73
2018-03-20T00:47:11.826Z,22.62
2018-03-20T00:49:40.380Z,19.98
2018-03-20T00:52:08.229Z,20.85
2018-03-20T00:54:36.081Z,22.02
2018-03-20T00:57:03.933Z,23.35
2018-03-20T00:59:31.784Z,21.70
2018-03-20T01:01:59.636Z,23.50
2018-03-20T01:04:27.359Z,20.62
2018-03-20T01:06:55.139Z,23.62
2018-03-20T01:09:22.887Z,24.27
2018-03-20T01:11:50.608Z,22.45
2018-03-20T01:14:18.283Z,24.75
2018-03-20T01:16:46.036Z,24.25
2018-03-20T01:19:13.883Z,24.52
2018-03-20T01:21:41.735Z,23.12
2018-03-20T01:24:09.691Z,23.27
2018-03-20T01:26:37.440Z,25.10
2018-03-20T01:29:05.290Z,22.90
2018-03-20T01:31:33.141Z,23.45
2018-03-20T01:34:00.894Z,25.42
2018-03-20T01:36:28.647Z,22.33
2018-03-20T01:38:56.495Z,20.23
2018-03-20T01:41:24.346Z,24.08
2018-03-20T01:43:52.199Z,22.55
2018-03-20T01:46:20.050Z,23.80
2018-03-20T01:48:47.798Z,24.90
2018-03-20T01:51:15.650Z,21.77
2018-03-20T01:53:43.403Z,22.83
2018-03-20T01:56:11.264Z,21.95
2018-03-20T01:58:39.103Z,22.00
2018-03-20T02:01:06.955Z,22.08
2018-03-20T02:03:34.813Z,19.67
2018-03-20T02:06:02.492Z,22.70
2018-03-20T02:08:30.305Z,21.52
2018-03-20T02:10:58.057Z,24.85
2018-03-20T02:13:25.909Z,22.65
2018-03-20T02:15:53.760Z,21.55
2018-03-20T02:18:21.616Z,24.17
2018-03-20T02:20:49.466Z,20.45
2018-03-20T02:23:17.315Z,17.62
2018-03-20T02:25:45.104Z,24.30
2018-03-20T02:28:12.917Z,23.58
2018-03-20T02:30:40.768Z,21.27
2018-03-20T02:33:08.519Z,22.02
2018-03-20T02:35:36.255Z,19.92
2018-03-20T02:38:04.017Z,22.08
2018-03-20T02:40:31.869Z,19.58
2018-03-20T02:42:59.720Z,20.20
2018-03-20T02:45:27.575Z,19.35
2018-03-20T02:47:55.430Z,19.48
2018-03-20T02:50:23.103Z,17.12
2018-03-20T02:52:51.583Z,17.80
2018-03-20T02:55:19.264Z,17.17
2018-03-20T02:57:47.008Z,19.42
2018-03-20T03:00:14.736Z,18.70
2018-03-20T03:02:42.416Z,18.15
2018-03-20T03:05:10.181Z,18.58
2018-03-20T03:07:38.034Z,16.48
2018-03-20T03:10:05.886Z,17.30
2018-03-20T03:12:33.636Z,17.00
2018-03-20T03:15:01.489Z,16.90
2018-03-20T03:17:29.204Z,17.67
2018-03-20T03:19:56.993Z,19.92
2018-03-20T03:22:24.839Z,21.08
2018-03-20T03:24:52.589Z,20.35
2018-03-20T03:27:20.271Z,19.02
2018-03-20T03:29:47.996Z,25.40
2018-03-20T03:32:15.838Z,28.80
2018-03-20T03:34:43.688Z,31.02
2018-03-20T03:37:11.437Z,31.45
2018-03-20T03:39:39.288Z,30.77
2018-03-20T03:42:07.140Z,29.42
2018-03-20T03:44:34.890Z,31.73
2018-03-20T03:47:02.742Z,29.90
2018-03-20T03:49:30.416Z,29.30
2018-03-20T03:51:59.164Z,29.83
2018-03-20T03:54:26.914Z,30.45
2018-03-20T03:56:54.664Z,33.35
2018-03-20T03:59:22.355Z,31.35
2018-03-20T04:01:50.069Z,29.77
2018-03-20T04:04:17.945Z,26.92
2018-03-20T04:06:46.449Z,24.30
2018-03-20T04:09:14.235Z,28.05
2018-03-20T04:11:42.080Z,26.50
2018-03-20T04:14:09.932Z,28.00
2018-03-20T04:16:37.681Z,25.50
2018-03-20T04:19:05.430Z,26.20
2018-03-20T04:21:33.180Z,31.30
2018-03-20T04:24:01.034Z,27.60
2018-03-20T04:26:28.884Z,27.98
2018-03-20T04:28:56.563Z,25.15
2018-03-20T04:31:25.101Z,27.40
2018-03-20T04:33:52.851Z,25.80
2018-03-20T04:36:20.702Z,26.87
2018-03-20T04:38:48.384Z,23.70
2018-03-20T04:41:16.098Z,24.58
2018-03-20T04:43:43.820Z,24.33
2018-03-20T04:46:11.498Z,23.80
2018-03-20T04:48:39.345Z,20.67
2018-03-20T04:51:07.095Z,23.05
2018-03-20T04:53:34.946Z,23.90
2018-03-20T04:56:02.646Z,24.00
2018-03-20T04:58:30.342Z,24.73
2018-03-20T05:00:58.200Z,24.17
2018-03-20T05:03:25.948Z,22.73
2018-03-20T05:05:53.680Z,19.15
2018-03-20T05:08:21.447Z,21.62
2018-03-20T05:10:49.297Z,21.77
2018-03-20T05:13:17.013Z,23.17
2018-03-20T05:15:44.898Z,22.23
2018-03-20T05:18:12.750Z,20.70
2018-03-20T05:20:46.235Z,24.12
2018-03-20T05:23:28.930Z,19.75
2018-03-20T05:25:56.793Z,20.98
2018-03-20T05:28:24.484Z,22.08
2018-03-20T05:30:52.216Z,18.33
2018-03-20T05:33:20.749Z,21.00
2018-03-20T05:35:48.605Z,19.02
2018-03-20T05:38:16.453Z,18.30
2018-03-20T05:40:44.305Z,16.05
2018-03-20T05:43:12.156Z,17.42
2018-03-20T05:45:40.007Z,16.27
2018-03-20T05:48:13.424Z,16.02
2018-03-20T05:53:43.803Z,17.45
2018-03-20T05:56:11.554Z,15.15
2018-03-20T05:58:39.317Z,18.25
2018-03-20T06:01:07.869Z,18.27
2018-03-20T06:03:35.721Z,18.08
2018-03-20T06:06:03.472Z,16.37
2018-03-20T06:08:31.322Z,18.37
2018-03-20T06:11:00.220Z,17.80
2018-03-20T06:13:28.712Z,19.02
2018-03-20T06:15:56.524Z,19.50
2018-03-20T06:18:24.370Z,19.17
2018-03-20T06:20:52.221Z,18.27
2018-03-20T06:23:19.944Z,15.45
2018-03-20T06:25:47.725Z,20.95
2018-03-20T06:28:15.576Z,18.12
2018-03-20T06:30:43.424Z,22.50
2018-03-20T06:33:11.107Z,18.67
2018-03-20T06:35:38.829Z,16.90
2018-03-20T06:38:06.774Z,15.85
2018-03-20T06:40:35.443Z,16.17
2018-03-20T06:43:03.296Z,13.70
2018-03-20T06:45:31.054Z,17.90
2018-03-20T06:47:58.793Z,12.90
2018-03-20T06:50:26.651Z,14.52
2018-03-20T06:52:54.606Z,13.48
2018-03-20T06:55:22.289Z,16.05
2018-03-20T06:57:50.029Z,13.27
2018-03-20T07:00:18.482Z,15.25
2018-03-20T07:02:47.034Z,14.90
2018-03-20T07:05:14.886Z,12.82
2018-03-20T07:07:42.773Z,14.75
2018-03-20T07:10:10.591Z,14.40
2018-03-20T07:12:38.443Z,13.80
2018-03-20T07:15:06.168Z,14.40
2018-03-20T07:17:33.848Z,13.85
2018-03-20T07:20:01.689Z,13.45
2018-03-20T07:22:29.439Z,14.40
2018-03-20T07:24:57.159Z,13.38
2018-03-20T07:27:24.852Z,15.93
2018-03-20T07:29:52.536Z,16.55
2018-03-20T07:32:20.293Z,14.02
2018-03-20T07:34:47.977Z,14.45
2018-03-20T07:37:15.833Z,15.32
2018-03-20T07:39:43.582Z,14.98
2018-03-20T07:42:11.332Z,14.48
2018-03-20T07:44:39.056Z,10.73
2018-03-20T07:47:06.727Z,14.52
2018-03-20T07:49:34.580Z,12.45
2018-03-20T07:52:02.431Z,12.37
2018-03-20T07:54:30.189Z,14.30
2018-03-20T07:56:58.035Z,16.65
2018-03-20T07:59:25.888Z,18.60
2018-03-20T08:01:53.624Z,16.25
2018-03-20T08:04:21.488Z,14.27
2018-03-20T08:06:49.339Z,12.27
2018-03-20T08:09:17.064Z,13.82
2018-03-20T08:11:44.785Z,13.27
2018-03-20T08:14:12.588Z,14.05
2018-03-20T08:16:40.379Z,11.45
2018-03-20T08:19:08.251Z,10.55
2018-03-20T08:21:36.041Z,13.13
2018-03-20T08:24:03.763Z,12.85
2018-03-20T08:26:31.538Z,16.17
2018-03-20T08:28:59.288Z,15.32
2018-03-20T08:31:27.036Z,19.27
2018-03-20T08:33:54.717Z,14.82
2018-03-20T08:36:23.204Z,14.40
2018-03-20T08:38:51.005Z,17.20
2018-03-20T08:41:19.678Z,15.90
2018-03-20T08:43:47.389Z,13.82
2018-03-20T08:46:15.133Z,13.82
2018-03-20T08:48:42.821Z,14.60
2018-03-20T08:51:10.673Z,13.88
2018-03-20T08:53:38.524Z,14.68
2018-03-20T08:56:06.375Z,17.25
2018-03-20T08:58:34.066Z,16.05
2018-03-20T09:01:01.800Z,15.55
2018-03-20T09:03:30.342Z,16.27
2018-03-20T09:05:58.092Z,15.60
2018-03-20T09:08:25.944Z,14.15
2018-03-20T09:10:53.795Z,13.77
2018-03-20T09:13:21.648Z,14.70
2018-03-20T09:15:49.328Z,15.27
2018-03-20T09:18:17.053Z,14.38
2018-03-20T09:20:44.894Z,13.00
2018-03-20T09:23:12.577Z,14.00
2018-03-20T09:25:40.304Z,14.07
2018-03-20T09:28:07.988Z,16.83
2018-03-20T09:30:35.891Z,19.55
2018-03-20T09:33:03.581Z,17.67
2018-03-20T09:35:31.274Z,15.27
2018-03-20T09:37:59.140Z,14.63
2018-03-20T09:40:26.994Z,15.48
2018-03-20T09:42:54.712Z,16.35
2018-03-20T09:45:22.436Z,12.95
2018-03-20T09:47:50.132Z,14.68
2018-03-20T09:50:17.868Z,15.93
2018-03-20T09:52:45.641Z,13.85
2018-03-20T09:55:13.467Z,13.32
2018-03-20T09:57:41.342Z,14.10
2018-03-20T10:00:09.194Z,13.57
2018-03-20T10:02:37.045Z,12.60
2018-03-20T10:05:04.897Z,11.12
2018-03-20T10:07:32.748Z,12.50
2018-03-20T10:10:00.601Z,12.40
2018-03-20T10:12:28.284Z,12.95
2018-03-20T10:14:56.101Z,11.85
2018-03-20T10:17:23.953Z,12.48
2018-03-20T10:19:51.805Z,14.43
2018-03-20T10:22:19.656Z,12.80
2018-03-20T10:24:47.508Z,12.82
2018-03-20T10:27:15.367Z,15.65
2018-03-20T10:29:44.029Z,15.07
2018-03-20T10:32:11.906Z,12.57
2018-03-20T10:34:39.734Z,12.95
2018-03-20T10:37:07.585Z,12.73
2018-03-20T10:39:35.334Z,13.30
2018-03-20T10:42:03.185Z,13.20
2018-03-20T10:44:31.755Z,12.63
2018-03-20T10:46:59.569Z,11.98
2018-03-20T10:49:27.303Z,10.98
2018-03-20T10:51:55.108Z,15.13
2018-03-20T10:54:22.807Z,12.20
2018-03-20T10:56:50.546Z,13.15
2018-03-20T10:59:18.355Z,12.35
2018-03-20T11:01:46.212Z,11.23
2018-03-20T11:04:14.065Z,10.10
2018-03-20T11:06:41.910Z,10.52
2018-03-20T11:09:09.762Z,12.73
2018-03-20T11:11:37.616Z,10.95
2018-03-20T11:14:05.470Z,12.15
2018-03-20T11:16:33.192Z,13.98
2018-03-20T11:19:01.989Z,11.90
2018-03-20T11:21:29.846Z,13.70
2018-03-20T11:23:57.541Z,15.68
2018-03-20T11:26:25.341Z,13.62
2018-03-20T11:28:53.193Z,13.15
2018-03-20T11:31:20.944Z,13.95
2018-03-20T11:33:48.810Z,12.90
2018-03-20T11:36:19.636Z,12.27
2018-03-20T11:38:48.287Z,14.87
2018-03-20T11:41:16.138Z,14.50
2018-03-20T11:43:43.886Z,13.88
2018-03-20T11:46:11.737Z,14.10
2018-03-20T11:48:39.493Z,13.18
2018-03-20T11:51:07.339Z,15.95
2018-03-20T11:53:35.190Z,13.40
2018-03-20T11:56:02.941Z,14.30
2018-03-20T11:58:30.791Z,16.15
2018-03-20T12:00:58.546Z,12.90
2018-03-20T12:03:26.396Z,13.15
2018-03-20T12:05:54.249Z,14.75
2018-03-20T12:08:33.769Z,12.88
2018-03-20T12:11:01.622Z,14.70
2018-03-20T12:13:30.092Z,14.98
2018-03-20T12:15:57.942Z,13.35
2018-03-20T12:18:25.799Z,14.05
2018-03-20T12:20:53.645Z,13.98
2018-03-20T12:23:21.496Z,15.38
2018-03-20T12:25:49.251Z,13.50
2018-03-20T12:28:17.097Z,15.43
2018-03-20T12:30:44.948Z,16.33
2018-03-20T12:33:12.700Z,14.32
2018-03-20T12:35:40.454Z,14.00
2018-03-20T12:38:08.300Z,13.30
2018-03-20T12:40:36.186Z,16.02
2018-03-20T12:43:03.881Z,14.10
2018-03-20T12:45:31.605Z,17.08
2018-03-20T12:47:59.398Z,15.43
2018-03-20T12:50:27.133Z,14.55
2018-03-20T12:52:54.902Z,14.75
2018-03-20T12:55:23.062Z,12.50
2018-03-20T12:57:50.914Z,11.10
2018-03-20T13:00:18.761Z,14.57
2018-03-20T13:02:46.614Z,13.43
2018-03-20T13:05:14.466Z,11.98
2018-03-20T13:07:42.328Z,12.95
2018-03-20T13:10:10.170Z,9.70
2018-03-20T13:12:38.022Z,9.27
2018-03-20T13:15:05.871Z,9.90
2018-03-20T13:17:33.724Z,13.13
2018-03-20T13:20:01.458Z,11.88
2018-03-20T13:22:29.856Z,9.10
2018-03-20T13:24:57.800Z,9.05
2018-03-20T13:27:25.646Z,10.65
2018-03-20T13:29:53.380Z,11.90
2018-03-20T13:32:21.153Z,13.70
2018-03-20T13:34:48.838Z,13.57
2018-03-20T13:37:16.610Z,14.10
2018-03-20T13:39:44.391Z,12.15
2018-03-20T13:42:12.244Z,13.98
2018-03-20T13:44:40.071Z,15.20
2018-03-20T13:47:07.748Z,15.50
2018-03-20T13:49:35.483Z,15.30
2018-03-20T13:52:03.241Z,14.68
2018-03-20T13:54:31.044Z,13.13
2018-03-20T13:56:58.772Z,14.05
2018-03-20T13:59:27.412Z,13.77
2018-03-20T14:01:55.265Z,13.38
2018-03-20T14:04:23.935Z,16.08
2018-03-20T14:06:51.787Z,15.43
2018-03-20T14:09:19.638Z,15.38
2018-03-20T14:11:47.504Z,15.73
2018-03-20T14:14:15.954Z,15.80
2018-03-20T14:16:43.808Z,15.32
2018-03-20T14:19:11.659Z,14.87
2018-03-20T14:21:39.392Z,16.15
2018-03-20T14:24:07.156Z,15.85
2018-03-20T14:26:35.014Z,15.73
2018-03-20T14:29:02.860Z,16.37
2018-03-20T14:31:30.711Z,13.30
2018-03-20T14:33:58.572Z,14.55
2018-03-20T14:36:26.421Z,15.30
2018-03-20T14:38:55.090Z,13.95
2018-03-20T14:41:22.840Z,16.02
2018-03-20T14:43:50.691Z,14.48
2018-03-20T14:46:18.541Z,14.20
2018-03-20T14:48:46.397Z,17.10
2018-03-20T14:51:14.245Z,12.85
2018-03-20T14:53:41.929Z,12.73
2018-03-20T14:56:09.744Z,12.60
2018-03-20T14:58:37.423Z,13.82
2018-03-20T15:01:05.959Z,12.98
2018-03-20T15:03:33.810Z,15.35
2018-03-20T15:06:01.664Z,13.07
2018-03-20T15:08:29.517Z,13.85
2018-03-20T15:10:57.368Z,14.55
2018-03-20T15:13:25.220Z,13.52
2018-03-20T15:15:53.072Z,12.68
2018-03-20T15:18:20.935Z,15.32
2018-03-20T15:20:49.594Z,14.80
2018-03-20T15:23:17.342Z,13.85
2018-03-20T15:25:45.200Z,17.45
2018-03-20T15:28:13.046Z,12.98
2018-03-20T15:30:40.901Z,14.05
2018-03-20T15:33:08.649Z,13.10
2018-03-20T15:35:36.510Z,10.40
2018-03-20T15:38:04.350Z,11.70
2018-03-20T15:40:32.202Z,11.50
2018-03-20T15:43:00.054Z,13.48
2018-03-20T15:45:27.908Z,12.18
2018-03-20T15:47:55.765Z,11.12
2018-03-20T15:50:23.614Z,11.15
2018-03-20T15:52:51.517Z,11.00
2018-03-20T15:55:19.423Z,10.52
2018-03-20T15:57:47.269Z,10.85
2018-03-20T16:00:15.121Z,11.07
2018-03-20T16:02:42.870Z,10.48
2018-03-20T16:05:10.724Z,13.00
2018-03-20T16:07:38.574Z,10.20
2018-03-20T16:10:06.427Z,11.02
2018-03-20T16:12:34.277Z,10.75
2018-03-20T16:15:02.149Z,10.98
2018-03-20T16:17:29.981Z,10.75
2018-03-20T16:19:57.835Z,12.00
2018-03-20T16:22:25.687Z,13.32
2018-03-20T16:24:53.541Z,13.50
2018-03-20T16:27:21.393Z,11.43
2018-03-20T16:29:49.243Z,11.90
2018-03-20T16:32:16.991Z,11.02
2018-03-20T16:34:44.890Z,14.38
2018-03-20T16:37:12.694Z,10.15
2018-03-20T16:39:40.558Z,11.20
2018-03-20T16:42:08.398Z,11.40
2018-03-20T16:44:36.250Z,11.60
2018-03-20T16:47:03.936Z,11.23
2018-03-20T16:49:31.753Z,10.60
2018-03-20T16:51:59.489Z,10.00
2018-03-20T16:54:27.352Z,12.70
2018-03-20T16:56:55.146Z,13.75
2018-03-20T16:59:22.978Z,13.38
2018-03-20T17:01:50.712Z,10.35
2018-03-20T17:04:18.557Z,11.63
2018-03-20T17:06:46.405Z,11.93
2018-03-20T17:09:14.154Z,13.15
2018-03-20T17:11:41.904Z,10.98
2018-03-20T17:14:09.619Z,12.93
2018-03-20T17:16:37.402Z,12.55
2018-03-20T17:19:05.254Z,13.95
2018-03-20T17:21:33.027Z,13.05
2018-03-20T17:24:01.675Z,13.55
2018-03-20T17:26:29.468Z,11.90
2018-03-20T17:28:57.277Z,15.15
2018-03-20T17:31:25.131Z,14.02
2018-03-20T17:33:52.981Z,14.18
2018-03-20T17:36:20.730Z,13.95
2018-03-20T17:38:48.584Z,13.70
2018-03-20T17:41:16.382Z,15.88
2018-03-20T17:43:44.186Z,13.68
2018-03-20T17:46:12.040Z,12.37
2018-03-20T17:48:39.761Z,13.40
2018-03-20T17:51:07.440Z,17.50
2018-03-20T17:53:35.286Z,14.00
2018-03-20T17:56:03.134Z,15.18
2018-03-20T17:58:30.932Z,14.40
2018-03-20T18:01:00.226Z,16.08
2018-03-20T18:03:27.952Z,15.48
2018-03-20T18:05:56.498Z,15.65
2018-03-20T18:08:24.180Z,16.62
2018-03-20T18:10:51.925Z,17.20
2018-03-20T18:13:19.737Z,16.02
2018-03-20T18:15:47.489Z,19.35
2018-03-20T18:18:15.340Z,17.00
2018-03-20T18:20:43.292Z,16.42
2018-03-20T18:23:11.143Z,16.40
2018-03-20T18:25:38.860Z,18.33
2018-03-20T18:28:06.759Z,18.23
2018-03-20T18:30:35.318Z,16.20
2018-03-20T18:33:03.168Z,16.67
2018-03-20T18:35:30.925Z,17.05
2018-03-20T18:38:03.269Z,17.35
2018-03-20T18:40:31.941Z,17.15
2018-03-20T18:43:00.348Z,15.93
2018-03-20T18:45:28.159Z,16.37
2018-03-20T18:47:56.012Z,17.15
2018-03-20T18:50:23.761Z,16.02
2018-03-20T18:52:51.617Z,17.92
2018-03-20T18:55:19.464Z,18.75
2018-03-20T18:57:47.319Z,20.15
2018-03-20T19:00:15.069Z,17.75
2018-03-20T19:02:42.918Z,17.70
2018-03-20T19:05:10.712Z,18.65
2018-03-20T19:07:38.520Z,18.00
2018-03-20T19:10:06.242Z,20.08
2018-03-20T19:12:34.029Z,23.30
2018-03-20T19:15:06.811Z,22.05
2018-03-20T19:17:34.591Z,20.37
2018-03-20T19:20:02.277Z,19.90
2018-03-20T19:22:30.031Z,18.27
2018-03-20T19:24:58.931Z,20.02
2018-03-20T19:27:26.904Z,23.45
2018-03-20T19:29:55.539Z,20.85
2018-03-20T19:32:23.390Z,20.12
2018-03-20T19:34:51.240Z,22.20
2018-03-20T19:37:19.091Z,21.20
2018-03-20T19:39:46.879Z,19.75
2018-03-20T19:42:16.757Z,20.20
2018-03-20T19:44:44.591Z,20.30
2018-03-20T19:47:12.337Z,20.37
2018-03-20T19:49:40.032Z,19.35
2018-03-20T19:52:07.778Z,20.73
2018-03-20T19:54:35.586Z,21.95
2018-03-20T19:57:03.447Z,20.95
2018-03-20T19:59:31.290Z,21.60
2018-03-20T20:01:59.147Z,21.48
2018-03-20T20:04:26.877Z,20.70
2018-03-20T20:06:54.748Z,23.08
2018-03-20T20:09:22.468Z,22.30
2018-03-20T20:11:50.346Z,19.40
2018-03-20T20:14:18.113Z,21.62
2018-03-20T20:16:46.767Z,19.20
2018-03-20T20:19:14.517Z,21.08
2018-03-20T20:21:42.370Z,21.67
2018-03-20T20:24:10.227Z,22.52
2018-03-20T20:26:38.070Z,19.87
2018-03-20T20:29:05.819Z,19.23
2018-03-20T20:31:33.570Z,21.12
2018-03-20T20:34:01.420Z,20.50
2018-03-20T20:36:29.113Z,20.05
2018-03-20T20:38:56.924Z,20.77
2018-03-20T20:41:24.661Z,19.77
2018-03-20T20:43:53.342Z,20.58
2018-03-20T20:46:21.092Z,19.23
2018-03-20T20:48:48.885Z,22.35
2018-03-20T20:51:16.694Z,19.37
2018-03-20T20:53:44.443Z,19.90
2018-03-20T20:56:12.294Z,20.08
2018-03-20T20:58:40.146Z,20.08
2018-03-20T21:01:08.000Z,21.92
2018-03-20T21:03:35.849Z,19.12
2018-03-20T21:06:03.702Z,20.33
2018-03-20T21:08:31.451Z,18.55
2018-03-20T21:10:59.410Z,21.62
2018-03-20T21:13:27.131Z,21.35
2018-03-20T21:15:54.906Z,20.10
2018-03-20T21:18:22.758Z,20.42
2018-03-20T21:20:50.506Z,21.23
2018-03-20T21:23:19.482Z,20.37
2018-03-20T21:25:47.160Z,19.60
2018-03-20T21:28:15.801Z,18.80
2018-03-20T21:30:43.658Z,18.52
2018-03-20T21:33:11.524Z,18.98
2018-03-20T21:35:40.177Z,18.37
2018-03-20T21:38:08.029Z,18.90
2018-03-20T21:40:35.881Z,16.90
2018-03-20T21:43:03.568Z,15.98
2018-03-20T21:45:31.378Z,16.40
2018-03-20T21:47:59.232Z,16.67
2018-03-20T21:50:27.084Z,17.00
2018-03-20T21:52:54.938Z,16.37
2018-03-20T21:55:22.790Z,16.92
2018-03-20T21:57:50.638Z,15.32
2018-03-20T22:00:18.372Z,14.90
2018-03-20T22:02:46.076Z,14.63
2018-03-20T22:05:14.603Z,14.48
2018-03-20T22:07:42.454Z,14.18
2018-03-20T22:10:10.138Z,14.48
2018-03-20T22:12:37.955Z,13.75
2018-03-20T22:15:05.804Z,12.80
2018-03-20T22:17:33.657Z,13.75
2018-03-20T22:20:01.509Z,14.48
2018-03-20T22:22:29.468Z,13.98
2018-03-20T22:24:58.075Z,13.82
2018-03-20T22:27:25.992Z,12.57
2018-03-20T22:29:53.842Z,15.10
2018-03-20T22:32:21.692Z,14.38
2018-03-20T22:34:49.542Z,14.82
2018-03-20T22:37:17.292Z,13.60
2018-03-20T22:39:45.012Z,13.52
2018-03-20T22:42:12.691Z,14.38
2018-03-20T22:44:40.540Z,14.48
2018-03-20T22:47:08.393Z,12.65
2018-03-20T22:49:36.246Z,13.40
2018-03-20T22:52:04.094Z,13.27
2018-03-20T22:54:31.946Z,13.45
2018-03-20T22:56:59.702Z,13.15
2018-03-20T22:59:27.553Z,13.40
2018-03-20T23:01:55.310Z,14.73
2018-03-20T23:04:23.152Z,13.73
2018-03-20T23:06:51.004Z,12.37
2018-03-20T23:09:18.720Z,11.75
2018-03-20T23:11:46.500Z,11.80
2018-03-20T23:14:14.353Z,13.57
2018-03-20T23:16:42.027Z,10.00
2018-03-20T23:19:09.705Z,10.55
2018-03-20T23:21:37.501Z,9.63
2018-03-20T23:24:05.194Z,9.13
2018-03-20T23:26:32.996Z,10.00
2018-03-20T23:29:00.849Z,12.40
2018-03-20T23:31:28.564Z,9.57
2018-03-20T23:33:56.350Z,10.70
2018-03-20T23:36:24.201Z,8.95
2018-03-20T23:38:52.054Z,11.05
2018-03-20T23:41:19.736Z,9.05
2018-03-20T23:43:47.452Z,8.65
2018-03-20T23:46:15.301Z,8.30
2018-03-20T23:48:43.153Z,7.62
2018-03-20T23:51:10.903Z,8.30
2018-03-20T23:53:38.759Z,9.38
2018-03-20T23:56:06.605Z,8.25
2018-03-20T23:58:34.284Z,7.40
